Trooz, Belgium
Current Conditions -  °F | °C
As of 4:50 PM on Sunday 21 Dec 2014 (Local Time) from EBLG Reporting Station
Broken Clouds Broken Clouds  
Wind Chill: 35°   Ceiling: 1100
Heat Index: 43°   Visibility: 6mi
Dew Point: 41°   Wind: 18mph
Humidity: 93%   Direction: 220°SW
Pressure: 30.33"   Gusts: NA
Location:  50.57°N, 5.7°E
Report Text: EBLG 211550Z 22016KT 9999 FEW008 BKN011 06/05 Q1027 TEMPO 5000 RADZ
Loading
Personal Weather Stations






























Interactive Weather Map New forecast layout! Learn more

10-Day Weather Forecast

Advertisements
Track Severe Weather on mobile